Time;durP1;ratioP1;P1;durP2;ratioP2;P2;SDS_P1;SDS_P2;PMS_P1;PMS_P2;Temp;Humidity;BMP_temperature;BMP_pressure;BME280_temperature;BME280_humidity;BME280_pressure;Samples;Min_cycle;Max_cycle;Signal;HPM_P1;HPM_P2
2023/07/23 00:00:39;;;;;;;;;2.00;1.25;;;;;12.87;100.00;98360.31;4966376;28;101940;-73
2023/07/23 00:03:07;;;;;;;;;6.75;5.25;;;;;12.75;100.00;98352.03;4953707;28;102047;-73
2023/07/23 00:05:35;;;;;;;;;4.75;4.75;;;;;12.81;100.00;98363.91;4947362;28;103834;-73
2023/07/23 00:08:02;;;;;;;;;4.50;4.00;;;;;12.81;100.00;98363.91;4946678;28;102207;-73
2023/07/23 00:10:29;;;;;;;;;5.25;4.75;;;;;12.85;100.00;98378.69;4947683;28;102074;-73
2023/07/23 00:12:56;;;;;;;;;4.25;4.25;;;;;12.77;100.00;98357.25;4954437;28;102253;-73
2023/07/23 00:15:23;;;;;;;;;7.00;6.00;;;;;12.71;100.00;98360.84;4947604;28;109161;-72
2023/07/23 00:17:51;;;;;;;;;5.50;5.50;;;;;12.62;100.00;98343.16;4947021;28;102040;-73
2023/07/23 00:20:18;;;;;;;;;4.00;4.00;;;;;12.53;100.00;98340.72;4942527;28;102583;-73
2023/07/23 00:22:45;;;;;;;;;5.50;4.50;;;;;12.68;100.00;98372.97;4951634;28;102066;-72
2023/07/23 00:25:12;;;;;;;;;4.00;3.75;;;;;12.64;100.00;98366.34;4945679;28;104581;-73
2023/07/23 00:27:39;;;;;;;;;8.75;8.00;;;;;12.63;100.00;98374.69;4963489;28;102318;-73
2023/07/23 00:30:07;;;;;;;;;11.50;10.50;;;;;12.59;100.00;98359.91;4949072;28;102514;-73
2023/07/23 00:32:34;;;;;;;;;9.25;8.75;;;;;12.52;100.00;98365.34;4949046;28;103064;-73
2023/07/23 00:35:02;;;;;;;;;7.75;7.75;;;;;12.26;100.00;98341.97;4945877;28;104311;-73
2023/07/23 00:37:29;;;;;;;;;7.00;6.75;;;;;12.41;100.00;98361.47;4945069;28;102222;-72
2023/07/23 00:39:56;;;;;;;;;7.50;7.50;;;;;12.11;100.00;98319.75;4950517;28;102507;-72
2023/07/23 00:42:23;;;;;;;;;9.00;7.00;;;;;12.24;100.00;98359.50;4949061;28;102404;-73
2023/07/23 00:44:50;;;;;;;;;7.50;7.00;;;;;12.18;100.00;98349.53;4947490;28;104176;-73
2023/07/23 00:47:17;;;;;;;;;6.00;5.00;;;;;12.20;100.00;98350.16;4943758;28;102129;-73
2023/07/23 00:49:45;;;;;;;;;10.00;9.00;;;;;12.24;100.00;98352.22;4948323;28;102290;-73
2023/07/23 00:52:13;;;;;;;;;7.00;6.50;;;;;12.11;100.00;98333.31;4948834;28;102304;-73
2023/07/23 00:54:40;;;;;;;;;7.50;7.00;;;;;12.17;100.00;98335.13;4948167;28;104097;-73
2023/07/23 00:57:10;;;;;;;;;6.25;5.75;;;;;11.41;100.00;98221.34;4950744;28;102151;-73
2023/07/23 00:59:38;;;;;;;;;4.50;4.50;;;;;12.11;100.00;98338.72;4943652;28;102341;-72
2023/07/23 01:02:06;;;;;;;;;3.00;3.00;;;;;12.16;100.00;98347.03;4950283;28;102286;-73
2023/07/23 01:04:43;;;;;;;;;4.75;4.00;;;;;12.05;100.00;98343.13;4948918;28;104472;-72
2023/07/23 01:07:35;;;;;;;;;6.00;5.75;;;;;12.11;100.00;98351.44;4947453;28;102650;-72
2023/07/23 01:10:23;;;;;;;;;5.75;5.00;;;;;11.98;100.00;98346.91;4949456;28;102167;-72
2023/07/23 01:13:11;;;;;;;;;12.00;10.50;;;;;11.79;100.00;98326.19;4946271;28;102222;-72
2023/07/23 01:15:57;;;;;;;;;9.50;8.50;;;;;11.88;100.00;98335.72;4950561;28;107634;-72
2023/07/23 01:18:44;;;;;;;;;6.50;6.50;;;;;11.99;100.00;98345.88;4947877;28;102166;-73
2023/07/23 01:21:28;;;;;;;;;10.00;6.00;;;;;11.90;100.00;98341.75;4960366;27;102117;-72
2023/07/23 01:23:56;;;;;;;;;5.25;5.00;;;;;11.86;100.00;98332.38;4954941;28;102318;-72
2023/07/23 01:26:23;;;;;;;;;7.75;7.00;;;;;11.86;100.00;98340.50;4950802;28;106747;-72
2023/07/23 01:28:50;;;;;;;;;6.75;6.00;;;;;11.54;100.00;98307.91;4948043;28;102325;-73
2023/07/23 01:31:17;;;;;;;;;6.75;6.00;;;;;11.64;100.00;98323.69;4948985;28;102391;-73
2023/07/23 01:33:46;;;;;;;;;5.50;5.50;;;;;11.69;100.00;98336.59;4951620;28;102076;-73
2023/07/23 01:36:14;;;;;;;;;8.00;7.25;;;;;11.75;100.00;98346.63;4943215;28;104455;-73
2023/07/23 01:38:41;;;;;;;;;6.00;5.00;;;;;11.58;100.00;98314.56;4949826;28;102879;-73
2023/07/23 01:41:08;;;;;;;;;10.00;9.50;;;;;11.56;100.00;98326.66;4949582;28;102155;-73
2023/07/23 01:43:38;;;;;;;;;9.50;9.00;;;;;11.64;100.00;98338.09;4953904;28;102073;-72
2023/07/23 01:46:05;;;;;;;;;6.50;5.50;;;;;11.48;100.00;98326.91;4950617;28;105175;-72
2023/07/23 01:48:32;;;;;;;;;10.75;9.25;;;;;11.36;100.00;98325.88;4946777;28;102037;-72
2023/07/23 01:50:59;;;;;;;;;8.25;7.00;;;;;11.44;100.00;98336.47;4944825;28;102189;-72
2023/07/23 01:53:27;;;;;;;;;6.25;6.25;;;;;11.37;100.00;98322.97;4957334;28;102431;-72
2023/07/23 01:55:58;;;;;;;;;5.50;4.75;;;;;11.31;100.00;98314.84;4951503;28;107708;-73
2023/07/23 01:58:25;;;;;;;;;5.00;4.00;;;;;11.27;100.00;98306.34;4953730;28;101984;-72
2023/07/23 02:00:58;;;;;;;;;8.50;6.00;;;;;11.36;100.00;98336.72;4947814;28;102122;-72
2023/07/23 02:03:25;;;;;;;;;3.75;3.75;;;;;11.19;100.00;98303.88;4952210;28;102120;-72
2023/07/23 02:06:00;;;;;;;;;6.50;5.75;;;;;11.41;100.00;98345.84;4948463;28;104218;-73
2023/07/23 02:08:28;;;;;;;;;5.75;5.00;;;;;11.18;100.00;98303.03;4948098;28;102065;-73
2023/07/23 02:11:00;;;;;;;;;3.75;3.75;;;;;11.29;100.00;98325.91;4952884;28;102055;-73
2023/07/23 02:13:28;;;;;;;;;4.00;3.75;;;;;11.24;100.00;98324.88;4945047;28;102518;-72
2023/07/23 02:15:56;;;;;;;;;4.75;4.50;;;;;11.22;100.00;98330.50;4946578;28;110598;-72
2023/07/23 02:18:23;;;;;;;;;6.00;6.00;;;;;11.14;100.00;98330.72;4943788;28;102013;-73
2023/07/23 02:20:50;;;;;;;;;4.25;3.75;;;;;11.12;100.00;98343.66;4939664;28;102170;-73
2023/07/23 02:23:17;;;;;;;;;5.00;4.50;;;;;11.10;100.00;98337.59;4944769;28;101884;-73
2023/07/23 02:25:48;;;;;;;;;5.50;5.50;;;;;10.84;100.00;98310.59;4945222;28;104093;-73
2023/07/23 02:28:15;;;;;;;;;7.75;7.00;;;;;10.93;100.00;98337.22;4961947;28;102164;-73
2023/07/23 02:30:42;;;;;;;;;7.25;6.25;;;;;10.36;100.00;98240.53;4944210;28;102166;-73
2023/07/23 02:33:09;;;;;;;;;7.00;6.00;;;;;10.91;100.00;98347.41;4949358;28;102178;-72
2023/07/23 02:35:37;;;;;;;;;6.00;5.50;;;;;10.76;100.00;98303.53;4947919;28;104128;-73
2023/07/23 02:38:04;;;;;;;;;5.00;5.00;;;;;10.94;100.00;98321.81;4943198;28;102309;-73
2023/07/23 02:40:33;;;;;;;;;5.00;4.00;;;;;10.87;100.00;98315.56;4946297;28;102258;-73
2023/07/23 02:43:01;;;;;;;;;4.75;4.75;;;;;10.99;100.00;98339.06;4941750;28;102149;-72
2023/07/23 02:45:30;;;;;;;;;3.00;3.00;;;;;10.91;100.00;98324.94;4946904;28;108008;-72
2023/07/23 02:47:57;;;;;;;;;4.00;4.00;;;;;10.98;100.00;98342.00;4940104;28;102831;-73
2023/07/23 02:50:25;;;;;;;;;4.00;4.00;;;;;10.66;100.00;98306.66;4943578;28;102218;-73
2023/07/23 02:52:53;;;;;;;;;5.00;5.00;;;;;10.95;100.00;98347.81;4944108;28;102436;-73
2023/07/23 02:55:22;;;;;;;;;3.00;3.00;;;;;10.89;100.00;98335.13;4948316;28;103671;-73
2023/07/23 02:57:50;;;;;;;;;4.00;4.00;;;;;10.71;100.00;98314.97;4948513;28;102187;-73
2023/07/23 03:00:20;;;;;;;;;5.50;4.75;;;;;10.81;100.00;98327.25;4949318;28;102218;-74
2023/07/23 03:02:48;;;;;;;;;4.00;4.00;;;;;10.68;100.00;98307.25;4953232;28;101982;-73
2023/07/23 03:05:15;;;;;;;;;6.00;6.00;;;;;10.82;100.00;98324.31;4948178;28;103968;-73
2023/07/23 03:07:42;;;;;;;;;4.75;4.00;;;;;10.92;100.00;98340.13;4944392;28;102498;-73
2023/07/23 03:10:10;;;;;;;;;3.50;3.50;;;;;10.73;100.00;98310.19;4943710;28;103693;-73
2023/07/23 03:12:37;;;;;;;;;5.75;5.00;;;;;10.71;100.00;98309.56;4953539;28;102130;-73
2023/07/23 03:15:05;;;;;;;;;5.00;4.50;;;;;10.57;100.00;98294.38;4944571;28;103699;-73
2023/07/23 03:17:33;;;;;;;;;7.75;7.75;;;;;10.65;100.00;98301.44;4950739;28;107143;-73
2023/07/23 03:20:00;;;;;;;;;4.50;4.00;;;;;10.80;100.00;98320.16;4952777;28;102313;-73
2023/07/23 03:22:27;;;;;;;;;4.75;4.25;;;;;10.94;100.00;98332.66;4954577;28;102050;-73
2023/07/23 03:24:54;;;;;;;;;4.00;4.00;;;;;10.91;100.00;98330.34;4948919;28;103884;-72
2023/07/23 03:27:21;;;;;;;;;3.75;3.25;;;;;10.86;100.00;98311.19;4947036;28;102207;-74
2023/07/23 03:29:48;;;;;;;;;3.25;3.00;;;;;10.67;100.00;98273.16;4963850;28;102480;-73
2023/07/23 03:32:15;;;;;;;;;4.00;3.75;;;;;10.69;100.00;98265.66;4952871;28;102390;-73
2023/07/23 03:34:44;;;;;;;;;4.00;4.00;;;;;10.97;100.00;98302.47;4948270;28;103713;-75
2023/07/23 03:37:11;;;;;;;;;3.00;3.00;;;;;11.16;100.00;98337.59;4949301;28;102161;-73
2023/07/23 03:39:38;;;;;;;;;4.50;4.00;;;;;11.20;100.00;98327.19;4949190;28;102459;-74
2023/07/23 03:42:06;;;;;;;;;4.75;4.75;;;;;11.10;100.00;98294.31;4950835;28;102190;-74
2023/07/23 03:44:33;;;;;;;;;3.50;3.50;;;;;11.35;100.00;98327.75;4944214;28;104665;-73
2023/07/23 03:47:11;;;;;;;;;4.75;4.00;;;;;11.39;100.00;98328.19;4952025;28;102198;-73
2023/07/23 03:49:38;;;;;;;;;4.25;4.00;;;;;11.30;100.00;98297.78;4946929;28;103826;-73
2023/07/23 03:52:06;;;;;;;;;4.00;3.50;;;;;11.49;100.00;98329.38;4945848;28;102666;-73
2023/07/23 03:54:34;;;;;;;;;4.75;4.50;;;;;11.38;100.00;98300.28;4950409;28;103153;-75
2023/07/23 03:57:02;;;;;;;;;7.50;7.50;;;;;11.54;100.00;98321.44;4944098;28;102240;-73
2023/07/23 03:59:33;;;;;;;;;5.00;5.00;;;;;11.47;100.00;98301.69;4949717;28;102206;-73
2023/07/23 04:02:01;;;;;;;;;4.25;4.25;;;;;11.71;100.00;98339.94;4948620;28;102234;-73
2023/07/23 04:04:28;;;;;;;;;3.75;3.75;;;;;11.51;100.00;98300.22;4946532;28;107848;-73
2023/07/23 04:06:55;;;;;;;;;7.00;6.00;;;;;11.78;100.00;98329.94;4945356;28;102333;-73
2023/07/23 04:09:22;;;;;;;;;3.00;3.00;;;;;11.86;100.00;98332.38;4947171;28;102845;-73
2023/07/23 04:11:49;;;;;;;;;4.00;4.00;;;;;11.94;100.00;98334.84;4945544;28;101967;-72
2023/07/23 04:14:16;;;;;;;;;4.25;3.75;;;;;11.98;100.00;98338.78;4948392;28;103105;-72
2023/07/23 04:16:43;;;;;;;;;4.00;4.00;;;;;11.95;100.00;98309.41;4948484;28;102365;-73
2023/07/23 04:19:10;;;;;;;;;3.00;3.00;;;;;12.04;100.00;98310.81;4947553;28;102400;-72
2023/07/23 04:21:40;;;;;;;;;5.00;4.00;;;;;12.18;100.00;98333.25;4950229;28;102350;-73
2023/07/23 04:24:07;;;;;;;;;7.00;6.00;;;;;12.22;100.00;98327.19;4945453;28;104019;-73
2023/07/23 04:26:34;;;;;;;;;5.25;3.75;;;;;12.16;100.00;98302.84;4945787;28;102758;-73
2023/07/23 04:29:01;;;;;;;;;10.75;9.25;;;;;12.22;100.00;98299.25;4950016;28;102391;-73
2023/07/23 04:31:28;;;;;;;;;10.00;9.25;;;;;12.40;100.00;98304.75;4953647;28;102181;-73
2023/07/23 04:33:56;;;;;;;;;8.50;8.25;;;;;12.44;100.00;98293.25;4949131;28;104040;-73
2023/07/23 04:36:23;;;;;;;;;14.50;13.00;;;;;12.31;100.00;98246.41;4948255;28;102351;-72
2023/07/23 04:38:50;;;;;;;;;20.25;17.00;;;;;12.95;100.00;98322.03;4946232;28;102512;-72
2023/07/23 04:41:17;;;;;;;;;15.00;14.00;;;;;13.17;100.00;98322.47;4942180;28;102206;-73
2023/07/23 04:43:44;;;;;;;;;14.50;13.75;;;;;13.30;100.00;98304.16;4948594;28;103987;-73
2023/07/23 04:46:12;;;;;;;;;17.75;15.75;;;;;13.58;100.00;98325.38;4936806;28;101945;-72
2023/07/23 04:48:39;;;;;;;;;14.75;14.50;;;;;13.68;100.00;98294.94;4950049;28;107093;-72
2023/07/23 04:51:08;;;;;;;;;13.00;13.00;;;;;13.96;100.00;98299.81;4949519;28;102619;-72
2023/07/23 04:53:36;;;;;;;;;12.00;10.25;;;;;14.32;100.00;98325.00;4948053;28;105478;-73
2023/07/23 04:56:04;;;;;;;;;6.75;6.00;;;;;14.38;100.00;98298.78;4949707;28;104724;-74
2023/07/23 04:58:32;;;;;;;;;6.25;6.00;;;;;14.45;100.00;98280.50;4950964;28;102439;-72
2023/07/23 05:01:07;;;;;;;;;4.00;4.00;;;;;14.77;100.00;98300.03;4954696;28;102127;-72
2023/07/23 05:03:34;;;;;;;;;4.75;4.00;;;;;14.82;100.00;98296.59;4944058;28;107351;-73
2023/07/23 05:06:05;;;;;;;;;4.00;4.00;;;;;15.16;100.00;98323.88;4953381;28;102252;-72
2023/07/23 05:08:34;;;;;;;;;4.00;4.00;;;;;15.19;100.00;98312.50;4965261;28;102250;-72
2023/07/23 05:11:05;;;;;;;;;3.00;3.00;;;;;15.21;100.00;98287.75;4951824;28;102325;-72
2023/07/23 05:13:34;;;;;;;;;3.50;3.50;;;;;15.55;100.00;98322.31;4951376;28;108953;-72
2023/07/23 05:16:03;;;;;;;;;2.00;2.00;;;;;15.54;100.00;98307.03;4952960;28;101967;-72
2023/07/23 05:18:31;;;;;;;;;2.00;2.00;;;;;15.67;99.92;98308.66;4953569;28;102502;-73
2023/07/23 05:21:01;;;;;;;;;2.00;2.00;;;;;15.65;99.31;98299.06;4952231;28;103707;-73
2023/07/23 05:23:28;;;;;;;;;1.33;1.33;;;;;15.99;99.83;98328.94;4953713;28;107695;-73
2023/07/23 05:25:56;;;;;;;;;2.33;2.33;;;;;15.84;97.55;98285.03;4952447;28;102188;-73
2023/07/23 05:28:23;;;;;;;;;3.00;1.00;;;;;16.17;97.37;98327.94;4954267;28;101950;-72
2023/07/23 05:30:56;;;;;;;;;1.33;1.33;;;;;16.26;94.62;98325.66;4949477;28;102723;-73
2023/07/23 05:33:24;;;;;;;;;2.00;2.00;;;;;16.32;94.39;98333.69;4952630;28;105254;-73
2023/07/23 05:35:52;;;;;;;;;1.00;1.00;;;;;16.37;93.74;98317.41;4946048;28;102172;-71
2023/07/23 05:38:19;;;;;;;;;1.00;1.00;;;;;16.32;92.86;98300.13;4950621;28;103653;-72
2023/07/23 05:40:56;;;;;;;;;1.00;1.00;;;;;16.48;92.65;98313.78;4967146;28;102156;-72
2023/07/23 05:43:23;;;;;;;;;2.00;2.00;;;;;16.56;91.90;98309.84;4950071;28;104045;-72
2023/07/23 05:45:54;;;;;;;;;2.00;2.00;;;;;16.73;89.86;98321.63;4946139;28;102315;-72
2023/07/23 05:48:21;;;;;;;;;0.00;0.00;;;;;16.87;90.43;98328.44;4950488;28;101993;-72
2023/07/23 05:50:48;;;;;;;;;2.00;2.00;;;;;16.77;90.52;98309.16;4950002;28;102201;-73
2023/07/23 05:53:15;;;;;;;;;1.00;1.00;;;;;16.83;89.44;98297.25;4949068;28;104014;-73
2023/07/23 05:55:43;;;;;;;;;2.00;2.00;;;;;17.13;88.66;98309.69;4950162;28;102449;-73
2023/07/23 05:58:10;;;;;;;;;2.67;2.00;;;;;17.61;84.67;98323.53;4947990;28;102033;-72
2023/07/23 06:00:37;;;;;;;;;2.00;2.00;;;;;17.23;81.54;98203.28;4946426;28;102465;-73
2023/07/23 06:03:05;;;;;;;;;3.00;2.00;;;;;18.10;80.69;98309.94;4950165;28;103708;-73
2023/07/23 06:05:33;;;;;;;;;3.67;3.67;;;;;18.18;80.82;98302.13;4950460;28;103075;-72
2023/07/23 06:08:00;;;;;;;;;1.67;1.67;;;;;18.32;80.38;98304.44;4953101;28;102233;-72
2023/07/23 06:10:27;;;;;;;;;2.33;2.00;;;;;18.20;81.34;98282.69;4946867;28;102047;-72
2023/07/23 06:12:54;;;;;;;;;3.00;3.00;;;;;18.38;80.33;98315.16;4946698;28;105266;-72
2023/07/23 06:15:21;;;;;;;;;2.67;2.67;;;;;18.26;80.21;98309.84;4945534;28;102188;-72
2023/07/23 06:17:48;;;;;;;;;2.67;2.00;;;;;18.25;80.98;98312.84;4945593;28;107415;-72
2023/07/23 06:20:16;;;;;;;;;3.00;2.00;;;;;18.15;81.38;98318.19;4953727;28;102315;-72
2023/07/23 06:22:43;;;;;;;;;2.00;2.00;;;;;18.01;80.43;98301.34;4940692;28;103685;-72
2023/07/23 06:25:10;;;;;;;;;2.00;2.00;;;;;17.98;81.15;98301.03;4947094;28;102219;-72
2023/07/23 06:27:38;;;;;;;;;2.00;2.00;;;;;17.95;83.46;98317.97;4950893;28;103205;-72
2023/07/23 06:30:05;;;;;;;;;1.00;1.00;;;;;17.98;83.08;98306.50;4966360;28;102070;-73
2023/07/23 06:32:32;;;;;;;;;2.00;2.00;;;;;17.52;83.94;98223.03;4950083;28;104023;-72
2023/07/23 06:35:00;;;;;;;;;2.00;2.00;;;;;18.07;82.62;98285.81;4949139;28;102017;-72
2023/07/23 06:37:31;;;;;;;;;1.67;1.67;;;;;18.31;79.84;98303.59;4950168;28;102462;-73
2023/07/23 06:39:58;;;;;;;;;2.00;2.00;;;;;18.35;81.23;98295.69;4947125;28;102453;-72
2023/07/23 06:42:25;;;;;;;;;1.00;1.00;;;;;18.26;82.15;98278.91;4948380;28;104199;-72
2023/07/23 06:44:52;;;;;;;;;2.00;2.00;;;;;18.35;81.40;98282.00;4947069;28;102043;-72
2023/07/23 06:47:20;;;;;;;;;3.00;2.33;;;;;18.14;81.16;98248.16;4946901;28;102100;-73
2023/07/23 06:49:47;;;;;;;;;1.33;1.33;;;;;18.46;81.91;98283.78;4946537;28;102380;-72
2023/07/23 06:52:14;;;;;;;;;3.33;2.00;;;;;18.53;79.59;98290.72;4945914;28;104030;-72
2023/07/23 06:54:42;;;;;;;;;3.00;2.67;;;;;18.51;79.34;98281.88;4942746;28;102479;-73
2023/07/23 06:57:09;;;;;;;;;2.00;2.00;;;;;18.50;78.62;98272.03;4945258;28;104263;-73
2023/07/23 06:59:36;;;;;;;;;3.00;2.00;;;;;18.71;79.56;98290.34;4954813;28;102291;-72
2023/07/23 07:02:04;;;;;;;;;2.00;1.67;;;;;18.84;80.13;98296.44;4952444;28;104343;-73
2023/07/23 07:04:31;;;;;;;;;2.00;2.00;;;;;18.91;78.51;98292.41;4951717;28;102362;-72
2023/07/23 07:06:58;;;;;;;;;3.00;3.00;;;;;18.89;78.04;98271.84;4945949;28;102178;-72
2023/07/23 07:09:25;;;;;;;;;2.00;2.00;;;;;19.04;79.01;98277.44;4950208;28;102388;-72
2023/07/23 07:11:52;;;;;;;;;4.00;3.00;;;;;19.30;79.14;98292.13;4946334;28;105830;-72
2023/07/23 07:14:19;;;;;;;;;2.33;2.00;;;;;19.50;76.56;98279.38;4963643;28;102064;-72
2023/07/23 07:16:46;;;;;;;;;2.00;2.00;;;;;19.67;75.38;98273.72;4947752;28;102156;-72
2023/07/23 07:19:13;;;;;;;;;5.00;3.67;;;;;19.91;75.36;98296.88;4949742;28;102485;-72
2023/07/23 07:21:41;;;;;;;;;6.00;5.00;;;;;20.12;74.93;98281.31;4946862;28;104819;-72
2023/07/23 07:24:08;;;;;;;;;3.67;3.00;;;;;20.41;74.39;98282.50;4948686;28;102229;-73
2023/07/23 07:26:36;;;;;;;;;3.00;3.00;;;;;20.54;72.45;98274.81;4948219;28;101782;-72
2023/07/23 07:29:03;;;;;;;;;3.00;3.00;;;;;20.70;73.17;98277.31;4954871;28;102330;-71
2023/07/23 07:31:30;;;;;;;;;4.67;4.00;;;;;20.71;72.78;98264.41;4947343;28;108520;-71
2023/07/23 07:33:58;;;;;;;;;5.00;4.00;;;;;20.83;72.54;98278.69;4945798;28;102306;-71
2023/07/23 07:36:25;;;;;;;;;1.00;1.00;;;;;20.87;73.54;98274.28;4963114;28;102768;-70
2023/07/23 07:38:53;;;;;;;;;1.67;1.67;;;;;20.97;73.56;98279.78;4950198;28;102262;-72
2023/07/23 07:41:20;;;;;;;;;3.67;3.67;;;;;21.13;74.20;98277.84;4947815;28;105473;-73
2023/07/23 07:43:47;;;;;;;;;2.00;2.00;;;;;21.23;73.70;98267.69;4962908;28;102432;-73
2023/07/23 07:46:15;;;;;;;;;2.33;2.00;;;;;21.15;70.40;98260.00;4949054;28;102132;-72
2023/07/23 07:48:43;;;;;;;;;2.33;2.33;;;;;21.23;70.13;98269.59;4946613;28;103149;-72
2023/07/23 07:51:10;;;;;;;;;2.67;2.67;;;;;21.29;71.64;98271.25;4950230;28;105357;-72
2023/07/23 07:53:38;;;;;;;;;2.00;2.00;;;;;21.23;71.70;98244.84;4951180;28;102436;-72
2023/07/23 07:56:05;;;;;;;;;2.00;2.00;;;;;21.15;71.34;98227.00;4944766;28;102201;-73
2023/07/23 07:58:33;;;;;;;;;1.00;1.00;;;;;21.39;70.47;98253.91;4966069;28;102232;-71
2023/07/23 08:01:02;;;;;;;;;2.00;1.00;;;;;21.48;69.45;98269.53;4947877;28;108538;-71
2023/07/23 08:03:30;;;;;;;;;2.00;2.00;;;;;21.48;70.30;98252.22;4952934;28;102390;-72
2023/07/23 08:05:59;;;;;;;;;4.67;4.33;;;;;21.46;70.28;98238.75;4949893;28;102062;-72
2023/07/23 08:08:28;;;;;;;;;2.00;2.00;;;;;21.81;69.94;98276.31;4948465;28;102359;-71
2023/07/23 08:10:57;;;;;;;;;4.00;3.00;;;;;21.93;69.30;98262.25;4951293;28;105451;-73
2023/07/23 08:13:25;;;;;;;;;3.00;2.33;;;;;22.23;68.08;98264.84;4950177;28;102240;-72
2023/07/23 08:15:53;;;;;;;;;3.67;2.33;;;;;22.11;67.44;98206.53;4947944;28;102020;-71
2023/07/23 08:18:22;;;;;;;;;3.00;3.00;;;;;22.79;67.13;98256.19;4950198;28;102504;-72
2023/07/23 08:20:50;;;;;;;;;2.67;2.00;;;;;23.00;66.39;98263.19;4951899;28;102818;-71
2023/07/23 08:23:18;;;;;;;;;4.00;4.00;;;;;23.02;65.69;98231.44;4953433;28;101981;-71
2023/07/23 08:25:52;;;;;;;;;6.00;5.00;;;;;23.39;64.24;98233.56;4953564;28;102031;-71
2023/07/23 08:28:27;;;;;;;;;4.67;4.00;;;;;23.58;64.72;98252.97;4950435;28;102452;-71
2023/07/23 08:30:55;;;;;;;;;3.67;3.33;;;;;23.82;64.78;98251.00;4949130;28;104053;-72
2023/07/23 08:33:26;;;;;;;;;5.33;4.00;;;;;23.99;61.84;98251.38;4947616;28;102141;-71
2023/07/23 08:35:53;;;;;;;;;5.00;4.00;;;;;24.02;63.48;98242.47;4945423;28;102042;-71
2023/07/23 08:38:22;;;;;;;;;5.00;4.00;;;;;24.13;62.25;98228.53;4949680;28;102152;-71
2023/07/23 08:40:57;;;;;;;;;6.67;6.00;;;;;24.06;62.78;98186.63;4952506;28;105735;-71
2023/07/23 08:43:52;;;;;;;;;6.00;6.00;;;;;24.38;58.78;98233.69;4953473;28;102351;-71
2023/07/23 08:46:21;;;;;;;;;6.00;5.67;;;;;24.51;56.73;98235.72;4951683;28;102043;-71
2023/07/23 08:48:54;;;;;;;;;4.67;4.67;;;;;24.63;58.41;98235.25;4954759;28;102070;-73
2023/07/23 08:51:33;;;;;;;;;7.67;7.00;;;;;24.68;54.26;98232.38;4949951;28;104046;-72
2023/07/23 08:54:06;;;;;;;;;6.00;5.00;;;;;24.75;58.72;98228.13;4951324;28;101793;-71
2023/07/23 08:56:37;;;;;;;;;5.00;5.00;;;;;24.48;57.25;98178.28;4943782;28;102905;-72
2023/07/23 08:59:05;;;;;;;;;5.33;5.33;;;;;24.97;58.08;98227.50;4957434;28;105099;-70
2023/07/23 09:01:35;;;;;;;;;6.67;6.67;;;;;24.70;55.67;98197.81;4950900;28;104094;-71
2023/07/23 09:04:07;;;;;;;;;6.00;6.00;;;;;25.03;54.39;98229.06;4956386;28;102204;-72
2023/07/23 09:06:35;;;;;;;;;7.00;7.00;;;;;25.14;56.21;98226.94;4950503;28;102186;-72
2023/07/23 09:09:04;;;;;;;;;5.00;5.00;;;;;25.25;53.32;98217.31;4959735;28;102435;-72
2023/07/23 09:11:32;;;;;;;;;7.33;6.33;;;;;25.36;54.39;98217.94;4950286;28;108656;-72
2023/07/23 09:14:06;;;;;;;;;5.00;5.00;;;;;25.48;53.89;98221.88;4951190;28;102064;-72
2023/07/23 09:16:39;;;;;;;;;6.00;6.00;;;;;25.28;51.11;98191.78;4950881;28;102925;-71
2023/07/23 09:19:08;;;;;;;;;5.00;5.00;;;;;25.64;51.46;98228.75;4967409;28;101983;-71
2023/07/23 09:21:38;;;;;;;;;5.33;5.33;;;;;25.74;51.07;98234.09;4948258;28;103031;-71
2023/07/23 09:24:07;;;;;;;;;5.67;5.67;;;;;25.76;50.36;98219.91;4970770;28;102287;-71
2023/07/23 09:26:36;;;;;;;;;5.00;5.00;;;;;25.82;49.97;98223.41;4968428;28;102437;-71
2023/07/23 09:29:08;;;;;;;;;5.00;4.00;;;;;26.02;48.98;98222.97;4950793;28;103105;-73
2023/07/23 09:31:37;;;;;;;;;5.00;4.00;;;;;26.12;48.16;98218.00;4949068;28;108549;-71
2023/07/23 09:34:04;;;;;;;;;4.00;4.00;;;;;26.17;49.23;98206.00;4952517;28;101894;-71
2023/07/23 09:36:31;;;;;;;;;4.67;3.67;;;;;26.15;47.75;98198.00;4953170;28;101841;-71
2023/07/23 09:39:00;;;;;;;;;5.00;5.00;;;;;26.00;44.76;98178.13;4949589;28;105220;-71
2023/07/23 09:41:31;;;;;;;;;4.00;4.00;;;;;26.39;48.20;98200.50;4947734;28;103614;-70
2023/07/23 09:44:07;;;;;;;;;3.00;2.67;;;;;26.59;48.78;98208.34;4946085;28;104504;-72
2023/07/23 09:46:36;;;;;;;;;1.33;1.00;;;;;26.85;46.60;98210.47;4953700;28;102471;-72
2023/07/23 09:49:03;;;;;;;;;3.67;3.67;;;;;26.59;42.00;98213.91;4951629;28;102520;-72
2023/07/23 09:51:33;;;;;;;;;4.67;3.33;;;;;26.49;43.02;98211.38;4951973;28;103605;-70
2023/07/23 09:54:02;;;;;;;;;3.00;3.00;;;;;26.29;43.05;98205.50;4956514;28;102137;-71
2023/07/23 09:56:31;;;;;;;;;3.00;3.00;;;;;26.26;43.68;98200.56;4950673;28;101862;-71
2023/07/23 09:58:59;;;;;;;;;3.00;3.00;;;;;26.27;42.64;98203.03;4951927;28;104544;-71
2023/07/23 10:01:28;;;;;;;;;3.00;3.00;;;;;26.34;42.49;98217.28;4947259;28;103084;-70
2023/07/23 10:03:58;;;;;;;;;4.00;3.00;;;;;26.38;42.20;98204.44;4951484;28;102320;-70
2023/07/23 10:06:25;;;;;;;;;4.00;4.00;;;;;26.33;42.25;98174.06;4968356;28;103047;-70
2023/07/23 10:08:52;;;;;;;;;3.33;3.33;;;;;26.58;42.05;98195.63;4951460;28;102333;-71
2023/07/23 10:11:19;;;;;;;;;3.33;3.33;;;;;26.79;43.82;98204.28;4954018;28;104027;-70
2023/07/23 10:13:51;;;;;;;;;2.67;2.67;;;;;26.80;41.37;98213.38;4951016;28;102122;-71
2023/07/23 10:16:23;;;;;;;;;3.33;3.33;;;;;26.85;41.98;98203.03;4947367;28;102413;-71
2023/07/23 10:18:54;;;;;;;;;3.00;3.00;;;;;26.79;42.80;98176.53;4950905;28;101958;-71
2023/07/23 10:21:22;;;;;;;;;1.33;1.33;;;;;27.07;41.91;98202.16;4947123;28;105360;-71
2023/07/23 10:23:58;;;;;;;;;3.00;3.00;;;;;27.12;41.84;98196.47;4951098;28;102063;-70
2023/07/23 10:26:42;;;;;;;;;4.00;4.00;;;;;27.08;40.48;98206.59;4950126;28;102692;-71
2023/07/23 10:29:11;;;;;;;;;3.00;3.00;;;;;27.23;42.66;98186.75;4948508;28;102482;-72
2023/07/23 10:31:42;;;;;;;;;3.00;2.00;;;;;27.25;41.76;98201.13;4948922;28;103858;-72
2023/07/23 10:34:29;;;;;;;;;3.67;3.00;;;;;27.34;41.84;98204.75;4934272;28;102185;-72
2023/07/23 10:37:21;;;;;;;;;2.33;2.33;;;;;27.33;39.98;98186.44;4949486;28;102897;-71
2023/07/23 10:39:52;;;;;;;;;4.00;4.00;;;;;27.14;39.19;98176.75;4962819;28;102250;-71
2023/07/23 10:42:46;;;;;;;;;3.67;3.67;;;;;27.11;38.98;98178.19;4949236;28;104013;-71
2023/07/23 10:45:25;;;;;;;;;2.67;2.67;;;;;27.04;39.24;98161.19;4950660;28;102425;-70
2023/07/23 10:47:57;;;;;;;;;2.00;2.00;;;;;27.21;39.38;98161.25;4947724;28;103249;-71
2023/07/23 10:50:27;;;;;;;;;4.67;4.00;;;;;27.12;38.16;98151.25;4949981;28;102353;-71
2023/07/23 10:53:05;;;;;;;;;3.33;3.33;;;;;27.27;39.57;98173.88;4951978;28;104012;-70
2023/07/23 10:55:40;;;;;;;;;2.67;2.33;;;;;27.32;38.48;98167.34;4948953;28;102436;-70
2023/07/23 10:58:13;;;;;;;;;6.00;5.00;;;;;27.31;39.42;98160.97;4951041;28;103245;-71
2023/07/23 11:00:45;;;;;;;;;3.00;2.67;;;;;27.23;38.91;98158.16;4947669;28;102053;-71
2023/07/23 11:03:17;;;;;;;;;4.00;4.00;;;;;27.16;37.32;98119.75;4951946;28;103011;-71
2023/07/23 11:05:45;;;;;;;;;2.33;1.33;;;;;27.55;40.71;98151.47;4950239;28;102325;-72
2023/07/23 11:08:18;;;;;;;;;4.67;4.00;;;;;27.27;39.79;98148.88;4951179;28;102271;-72
2023/07/23 11:10:59;;;;;;;;;2.33;2.33;;;;;27.46;40.35;98148.63;4952275;28;102507;-71
2023/07/23 11:13:37;;;;;;;;;2.33;2.33;;;;;27.62;39.71;98138.72;4948711;28;105470;-70
2023/07/23 11:16:04;;;;;;;;;2.33;2.33;;;;;27.75;39.04;98153.63;4950555;28;102968;-71
2023/07/23 11:18:32;;;;;;;;;2.00;2.00;;;;;27.76;38.79;98144.97;4950644;28;102021;-71
2023/07/23 11:21:06;;;;;;;;;3.33;3.33;;;;;27.85;37.34;98142.19;4947875;28;102335;-71
2023/07/23 11:23:33;;;;;;;;;3.00;3.00;;;;;27.83;37.31;98138.91;4965872;28;103983;-70
2023/07/23 11:26:00;;;;;;;;;2.67;2.33;;;;;27.80;37.21;98147.91;4949225;28;103630;-76
2023/07/23 11:28:27;;;;;;;;;3.00;3.00;;;;;27.44;37.89;98148.94;4944309;28;102109;-72
2023/07/23 11:30:55;;;;;;;;;3.33;3.33;;;;;27.47;39.31;98131.63;4948667;28;102168;-73